Metar z połowy godziny Komunikat METAR ze strony awiacja.imgw.pl Metar G30 EPTM METAR EPTM 221430Z 29012KT CAVOK 16/02 Q1016 RMK 164 039 6/4=